»·PEaware :: DAL935 KCOS-KSLC

DAL935 :: KCOS-KSLC

FLIGHT INFORMATION

Flight Status: Arrived
Operator:
Delta Air Lines
More flights by this operator :: More flights under this callsign
Pilot: Michael S. (20314)
Aircraft: AIRBUS A321
(A321)
More flights by this aircraft type
Origin: KCOS City Of Colorado Springs Mun
United States
Destination: KSLC Salt Lake City Intl
United States
More flights between these airports :: More routes between these airports
Route: BRK V83 PUB J28 HBU JNC J12 HELPR LEEHY5
File this flight plan on PilotEdge
Remarks: RMK / SIMBRIEF
Altitude:
(Current/Filed)
36,000ft
Speed:
(Current/Filed)
455kts
Departed: 17-Apr-21 12:40 PM
Arrived: 17-Apr-21 01:51 PM
Distance/Time
Traveled:
356nm/1:11
Distance/Time
To Go:
Arrived

Flight Plot

Page will automatically refresh every two minutes.

Flight plan parsing failed; only flown route is shown


Map Options




Map Legend


Flown Route
Filed Route
Departure Airport
Arrival Airport
Navaid (VOR, NDB)
Fix

Horizontal Profiles

Position Reports

Time Latitude Longitude Heading Altitude Ground
Speed
17-Apr-21 12:01 38.797936 -104.701548 100 6196ft 0kts
17-Apr-21 12:02 38.797936 -104.701548 100 6196ft 0kts
17-Apr-21 12:03 38.797936 -104.701548 100 6196ft 0kts
17-Apr-21 12:04 38.797936 -104.701548 100 6196ft 0kts
17-Apr-21 12:05 38.797936 -104.701548 100 6196ft 0kts
17-Apr-21 12:06 38.797936 -104.701548 100 6196ft 0kts
17-Apr-21 12:07 38.797936 -104.701548 100 6196ft 0kts
17-Apr-21 12:08 38.797936 -104.701548 100 6196ft 0kts
17-Apr-21 12:09 38.797936 -104.701548 100 6196ft 0kts
17-Apr-21 12:10 38.797936 -104.701548 100 6196ft 0kts
17-Apr-21 12:11 38.797936 -104.701548 100 6196ft 0kts
17-Apr-21 12:12 38.797936 -104.701548 100 6196ft 0kts
17-Apr-21 12:13 38.797936 -104.701548 100 6196ft 0kts
17-Apr-21 12:14 38.797936 -104.701548 100 6196ft 0kts
17-Apr-21 12:15 38.797936 -104.701548 100 6196ft 0kts
17-Apr-21 12:16 38.797936 -104.701548 100 6196ft 0kts
17-Apr-21 12:17 38.797936 -104.701548 100 6196ft 0kts
17-Apr-21 12:18 38.797936 -104.701548 100 6196ft 0kts
17-Apr-21 12:19 38.797936 -104.701548 100 6196ft 0kts
17-Apr-21 12:20 38.797936 -104.701548 100 6196ft 0kts
17-Apr-21 12:21 38.797936 -104.701548 100 6196ft 0kts
17-Apr-21 12:22 38.797936 -104.701548 100 6196ft 0kts
17-Apr-21 12:23 38.797975 -104.701858 90 6196ft 2kts
17-Apr-21 12:24 38.798289 -104.702488 123 6196ft 2kts
17-Apr-21 12:25 38.798453 -104.702938 29 6196ft 1kts
17-Apr-21 12:26 38.798345 -104.702951 358 6196ft 0kts
17-Apr-21 12:27 38.798345 -104.702951 358 6196ft 0kts
17-Apr-21 12:28 38.798345 -104.702951 358 6196ft 0kts
17-Apr-21 12:29 38.799563 -104.703497 320 6196ft 10kts
17-Apr-21 12:30 38.802787 -104.704483 21 6196ft 13kts
17-Apr-21 12:31 38.803116 -104.699607 88 6196ft 17kts
17-Apr-21 12:32 38.803125 -104.693280 90 6196ft 18kts
17-Apr-21 12:33 38.802808 -104.687593 174 6196ft 9kts
17-Apr-21 12:34 38.797241 -104.687641 181 6196ft 27kts
17-Apr-21 12:35 38.789610 -104.687652 180 6196ft 24kts
17-Apr-21 12:36 38.783307 -104.687669 179 6196ft 21kts
17-Apr-21 12:37 38.779189 -104.687078 91 6196ft 0kts
17-Apr-21 12:38 38.779178 -104.686367 88 6196ft 10kts
17-Apr-21 12:39 38.803025 -104.685799 0 6562ft 188kts
17-Apr-21 12:40 38.853988 -104.686090 359 8936ft 204kts
17-Apr-21 12:41 38.919509 -104.686286 2 10265ft 266kts
17-Apr-21 12:42 38.970551 -104.632926 92 12776ft 288kts
17-Apr-21 12:43 38.906385 -104.574305 171 14047ft 343kts
17-Apr-21 12:44 38.810756 -104.552709 171 16383ft 357kts
17-Apr-21 12:45 38.712326 -104.529207 172 18610ft 367kts
17-Apr-21 12:46 38.610821 -104.504906 172 20579ft 379kts
17-Apr-21 12:47 38.506296 -104.479927 172 22478ft 387kts
17-Apr-21 12:48 38.399807 -104.454593 175 24208ft 394kts
17-Apr-21 12:49 38.312171 -104.512067 246 25651ft 374kts
17-Apr-21 12:50 38.309539 -104.646482 274 27050ft 383kts
17-Apr-21 12:51 38.319169 -104.785325 274 28373ft 391kts
17-Apr-21 12:52 38.328667 -104.924786 274 29578ft 399kts
17-Apr-21 12:53 38.338147 -105.066651 274 30677ft 406kts
17-Apr-21 12:54 38.347526 -105.209511 274 32019ft 404kts
17-Apr-21 12:55 38.356772 -105.353292 274 33274ft 401kts
17-Apr-21 12:56 38.365694 -105.494515 274 34434ft 398kts
17-Apr-21 12:57 38.374397 -105.634580 274 35448ft 396kts
17-Apr-21 12:58 38.382916 -105.774592 273 36288ft 394kts
17-Apr-21 12:59 38.391403 -105.916496 273 36301ft 405kts
17-Apr-21 13:00 38.399863 -106.061652 273 36303ft 414kts
17-Apr-21 13:01 38.408147 -106.207675 274 36302ft 415kts
17-Apr-21 13:02 38.416515 -106.357924 274 36300ft 432kts
17-Apr-21 13:03 38.424820 -106.510673 274 36230ft 433kts
17-Apr-21 13:04 38.432961 -106.663865 273 36148ft 435kts
17-Apr-21 13:05 38.440938 -106.818148 273 36131ft 437kts
17-Apr-21 13:06 38.451090 -106.972850 278 36131ft 438kts
17-Apr-21 13:07 38.482357 -107.122537 290 36167ft 440kts
17-Apr-21 13:08 38.531849 -107.265177 293 36174ft 440kts
17-Apr-21 13:09 38.582456 -107.408148 293 36174ft 441kts
17-Apr-21 13:10 38.632977 -107.551660 293 36178ft 441kts
17-Apr-21 13:11 38.682932 -107.694397 293 36183ft 440kts
17-Apr-21 13:12 38.732725 -107.837599 293 36181ft 441kts
17-Apr-21 13:13 38.782419 -107.980923 293 36174ft 441kts
17-Apr-21 13:14 38.832304 -108.125518 293 36168ft 444kts
17-Apr-21 13:15 38.882109 -108.270503 293 36167ft 445kts
17-Apr-21 13:16 38.931925 -108.416256 294 36169ft 446kts
17-Apr-21 13:17 38.981479 -108.561925 294 36173ft 446kts
17-Apr-21 13:18 39.030867 -108.707952 293 36175ft 447kts
17-Apr-21 13:19 39.083484 -108.852697 297 36175ft 447kts
17-Apr-21 13:20 39.141401 -108.994775 298 36175ft 448kts
17-Apr-21 13:21 39.198850 -109.136857 298 36174ft 449kts
17-Apr-21 13:22 39.256298 -109.280087 298 36175ft 450kts
17-Apr-21 13:23 39.313683 -109.423820 298 36179ft 451kts
17-Apr-21 13:24 39.370702 -109.567339 298 36183ft 451kts
17-Apr-21 13:25 39.427827 -109.712047 298 36183ft 453kts
17-Apr-21 13:26 39.484943 -109.857379 298 36183ft 453kts
17-Apr-21 13:27 39.541994 -110.003009 298 36189ft 454kts
17-Apr-21 13:28 39.598241 -110.147339 298 36219ft 435kts
17-Apr-21 13:29 39.652641 -110.287467 299 36244ft 436kts
17-Apr-21 13:30 39.705990 -110.425582 299 35571ft 419kts
17-Apr-21 13:31 39.757948 -110.560670 299 34568ft 419kts
17-Apr-21 13:32 39.810041 -110.697025 298 32652ft 428kts
17-Apr-21 13:33 39.863414 -110.837595 299 29585ft 442kts
17-Apr-21 13:34 39.916864 -110.978588 299 26599ft 429kts
17-Apr-21 13:35 39.969263 -111.117389 299 23757ft 426kts
17-Apr-21 13:36 40.020698 -111.254386 299 21616ft 418kts
17-Apr-21 13:37 40.071097 -111.389188 299 19490ft 409kts
17-Apr-21 13:38 40.120117 -111.520376 299 17385ft 399kts
17-Apr-21 13:39 40.168630 -111.650749 299 16009ft 402kts
17-Apr-21 13:40 40.238159 -111.762518 316 13222ft 399kts
17-Apr-21 13:41 40.315589 -111.856924 323 11696ft 355kts
17-Apr-21 13:42 40.389548 -111.926544 342 11028ft 300kts
17-Apr-21 13:43 40.469202 -111.937916 356 10240ft 296kts
17-Apr-21 13:44 40.546500 -111.946684 356 8645ft 246kts
17-Apr-21 13:45 40.608471 -111.953855 356 7477ft 197kts
17-Apr-21 13:46 40.655338 -111.959302 357 6498ft 145kts
17-Apr-21 13:47 40.695575 -111.963934 355 5785ft 145kts
17-Apr-21 13:48 40.735401 -111.968582 357 5049ft 143kts
17-Apr-21 13:49 40.774659 -111.973180 355 4284ft 137kts
17-Apr-21 13:50 40.794934 -111.976139 312 4236ft 25kts
17-Apr-21 13:51 40.795558 -111.977080 271 4236ft 4kts

Navigation Log

Ident Type
Flight plan parsing failed, navigation log unavailable